sensor_id;sensor_type;location;lat;lon;timestamp;pressure;altitude;pressure_sealevel;temperature;humidity
17781;BME280;8498;52.516;13.790;2022-08-20T00:02:07;100667.28;;;22.99;100.00
17781;BME280;8498;52.516;13.790;2022-08-20T00:07:30;100662.38;;;22.95;100.00
17781;BME280;8498;52.516;13.790;2022-08-20T00:12:52;100659.78;;;22.87;100.00
17781;BME280;8498;52.516;13.790;2022-08-20T00:18:15;100659.78;;;22.87;100.00
17781;BME280;8498;52.516;13.790;2022-08-20T00:23:43;100679.03;;;22.92;100.00
17781;BME280;8498;52.516;13.790;2022-08-20T00:29:06;100672.59;;;22.93;100.00
17781;BME280;8498;52.516;13.790;2022-08-20T00:34:29;100659.69;;;22.80;100.00
17781;BME280;8498;52.516;13.790;2022-08-20T00:39:51;100658.75;;;22.88;100.00
17781;BME280;8498;52.516;13.790;2022-08-20T00:45:15;100662.22;;;22.82;100.00
17781;BME280;8498;52.516;13.790;2022-08-20T00:50:38;100666.97;;;22.80;100.00
17781;BME280;8498;52.516;13.790;2022-08-20T00:56:00;100673.28;;;22.72;100.00
17781;BME280;8498;52.516;13.790;2022-08-20T01:01:23;100669.53;;;22.73;100.00
17781;BME280;8498;52.516;13.790;2022-08-20T01:06:46;100671.19;;;22.74;100.00
17781;BME280;8498;52.516;13.790;2022-08-20T01:12:10;100671.75;;;22.69;100.00
17781;BME280;8498;52.516;13.790;2022-08-20T01:17:35;100670.50;;;22.80;100.00
17781;BME280;8498;52.516;13.790;2022-08-20T01:23:14;100671.28;;;22.66;100.00
17781;BME280;8498;52.516;13.790;2022-08-20T01:29:08;100674.28;;;22.71;100.00
17781;BME280;8498;52.516;13.790;2022-08-20T01:34:33;100674.47;;;22.69;100.00
17781;BME280;8498;52.516;13.790;2022-08-20T01:39:55;100674.47;;;22.69;100.00
17781;BME280;8498;52.516;13.790;2022-08-20T01:45:18;100688.16;;;22.76;100.00
17781;BME280;8498;52.516;13.790;2022-08-20T01:50:44;100687.00;;;22.70;100.00
17781;BME280;8498;52.516;13.790;2022-08-20T01:56:14;100679.22;;;22.67;100.00
17781;BME280;8498;52.516;13.790;2022-08-20T02:01:39;100682.34;;;22.42;100.00
17781;BME280;8498;52.516;13.790;2022-08-20T02:07:16;100691.91;;;22.29;100.00
17781;BME280;8498;52.516;13.790;2022-08-20T02:12:40;100682.59;;;22.32;100.00
17781;BME280;8498;52.516;13.790;2022-08-20T02:18:07;100696.81;;;22.26;100.00
17781;BME280;8498;52.516;13.790;2022-08-20T02:23:31;100704.44;;;22.22;100.00
17781;BME280;8498;52.516;13.790;2022-08-20T02:28:54;100702.53;;;22.31;100.00
17781;BME280;8498;52.516;13.790;2022-08-20T02:34:17;100703.84;;;22.35;100.00
17781;BME280;8498;52.516;13.790;2022-08-20T02:39:45;100703.78;;;22.20;100.00
17781;BME280;8498;52.516;13.790;2022-08-20T02:45:10;100706.13;;;22.23;100.00
17781;BME280;8498;52.516;13.790;2022-08-20T02:50:41;100713.09;;;22.18;100.00
17781;BME280;8498;52.516;13.790;2022-08-20T02:56:05;100704.03;;;22.11;100.00
17781;BME280;8498;52.516;13.790;2022-08-20T03:01:28;100698.41;;;22.12;100.00
17781;BME280;8498;52.516;13.790;2022-08-20T03:06:51;100699.94;;;22.15;100.00
17781;BME280;8498;52.516;13.790;2022-08-20T03:12:14;100690.53;;;22.03;100.00
17781;BME280;8498;52.516;13.790;2022-08-20T03:17:37;100686.97;;;22.02;100.00
17781;BME280;8498;52.516;13.790;2022-08-20T03:23:00;100688.66;;;22.03;100.00
17781;BME280;8498;52.516;13.790;2022-08-20T03:28:22;100692.53;;;22.09;100.00
17781;BME280;8498;52.516;13.790;2022-08-20T03:33:45;100694.91;;;22.04;100.00
17781;BME280;8498;52.516;13.790;2022-08-20T03:39:15;100687.66;;;21.96;100.00
17781;BME280;8498;52.516;13.790;2022-08-20T03:44:37;100682.41;;;22.03;100.00
17781;BME280;8498;52.516;13.790;2022-08-20T03:50:00;100686.00;;;21.95;100.00
17781;BME280;8498;52.516;13.790;2022-08-20T03:55:23;100694.78;;;21.97;100.00
17781;BME280;8498;52.516;13.790;2022-08-20T04:00:48;100690.59;;;21.86;100.00
17781;BME280;8498;52.516;13.790;2022-08-20T04:06:11;100680.94;;;21.92;100.00
17781;BME280;8498;52.516;13.790;2022-08-20T04:11:33;100688.53;;;21.96;100.00
17781;BME280;8498;52.516;13.790;2022-08-20T04:16:56;100701.38;;;21.94;100.00
17781;BME280;8498;52.516;13.790;2022-08-20T04:22:18;100703.91;;;21.96;100.00
17781;BME280;8498;52.516;13.790;2022-08-20T04:27:41;100697.34;;;21.99;100.00
17781;BME280;8498;52.516;13.790;2022-08-20T04:33:03;100685.31;;;21.93;100.00
17781;BME280;8498;52.516;13.790;2022-08-20T04:38:26;100678.88;;;21.94;100.00
17781;BME280;8498;52.516;13.790;2022-08-20T04:44:09;100686.16;;;21.93;100.00
17781;BME280;8498;52.516;13.790;2022-08-20T04:49:32;100692.25;;;21.95;100.00
17781;BME280;8498;52.516;13.790;2022-08-20T04:54:54;100692.25;;;21.95;100.00
17781;BME280;8498;52.516;13.790;2022-08-20T05:00:19;100701.91;;;21.98;100.00
17781;BME280;8498;52.516;13.790;2022-08-20T05:05:42;100704.75;;;21.96;100.00
17781;BME280;8498;52.516;13.790;2022-08-20T05:11:06;100718.31;;;21.88;100.00
17781;BME280;8498;52.516;13.790;2022-08-20T05:16:50;100726.72;;;21.93;100.00
17781;BME280;8498;52.516;13.790;2022-08-20T05:22:14;100729.41;;;22.02;100.00
17781;BME280;8498;52.516;13.790;2022-08-20T05:27:38;100743.22;;;22.15;100.00
17781;BME280;8498;52.516;13.790;2022-08-20T05:33:09;100737.97;;;22.21;100.00
17781;BME280;8498;52.516;13.790;2022-08-20T05:38:34;100745.47;;;22.11;100.00
17781;BME280;8498;52.516;13.790;2022-08-20T05:43:57;100745.97;;;22.07;100.00
17781;BME280;8498;52.516;13.790;2022-08-20T05:49:22;100752.41;;;22.06;100.00
17781;BME280;8498;52.516;13.790;2022-08-20T05:54:45;100749.66;;;22.14;100.00
17781;BME280;8498;52.516;13.790;2022-08-20T06:00:11;100752.53;;;22.12;100.00
17781;BME280;8498;52.516;13.790;2022-08-20T06:05:34;100758.09;;;22.19;100.00
17781;BME280;8498;52.516;13.790;2022-08-20T06:10:57;100752.00;;;22.17;100.00
17781;BME280;8498;52.516;13.790;2022-08-20T06:16:19;100756.13;;;22.05;100.00
17781;BME280;8498;52.516;13.790;2022-08-20T06:21:42;100750.03;;;22.03;100.00
17781;BME280;8498;52.516;13.790;2022-08-20T06:27:05;100761.81;;;22.18;100.00
17781;BME280;8498;52.516;13.790;2022-08-20T06:32:28;100765.41;;;22.10;100.00
17781;BME280;8498;52.516;13.790;2022-08-20T06:37:55;100778.94;;;22.10;100.00
17781;BME280;8498;52.516;13.790;2022-08-20T06:43:22;100777.09;;;22.11;100.00
17781;BME280;8498;52.516;13.790;2022-08-20T06:48:44;100785.84;;;22.13;100.00
17781;BME280;8498;52.516;13.790;2022-08-20T06:54:07;100776.03;;;22.12;100.00
17781;BME280;8498;52.516;13.790;2022-08-20T06:59:30;100776.09;;;22.04;100.00
17781;BME280;8498;52.516;13.790;2022-08-20T07:04:52;100778.41;;;22.15;100.00
17781;BME280;8498;52.516;13.790;2022-08-20T07:10:18;100778.28;;;22.08;100.00
17781;BME280;8498;52.516;13.790;2022-08-20T07:15:42;100777.56;;;22.14;100.00
17781;BME280;8498;52.516;13.790;2022-08-20T07:21:05;100784.78;;;22.22;100.00
17781;BME280;8498;52.516;13.790;2022-08-20T07:26:27;100794.59;;;22.23;100.00
17781;BME280;8498;52.516;13.790;2022-08-20T07:31:50;100805.78;;;22.20;100.00
17781;BME280;8498;52.516;13.790;2022-08-20T07:37:39;100807.66;;;22.19;100.00
17781;BME280;8498;52.516;13.790;2022-08-20T07:43:02;100804.16;;;22.11;100.00
17781;BME280;8498;52.516;13.790;2022-08-20T07:48:26;100816.28;;;22.15;100.00
17781;BME280;8498;52.516;13.790;2022-08-20T07:53:53;100817.97;;;22.16;100.00
17781;BME280;8498;52.516;13.790;2022-08-20T07:59:16;100811.53;;;22.17;100.00
17781;BME280;8498;52.516;13.790;2022-08-20T08:04:38;100814.25;;;22.17;100.00
17781;BME280;8498;52.516;13.790;2022-08-20T08:10:04;100825.41;;;22.14;100.00
17781;BME280;8498;52.516;13.790;2022-08-20T08:15:30;100830.19;;;22.04;100.00
17781;BME280;8498;52.516;13.790;2022-08-20T08:20:56;100829.19;;;21.96;100.00
17781;BME280;8498;52.516;13.790;2022-08-20T08:26:19;100838.69;;;22.01;100.00
17781;BME280;8498;52.516;13.790;2022-08-20T08:31:41;100846.44;;;22.04;100.00
17781;BME280;8498;52.516;13.790;2022-08-20T08:37:04;100843.69;;;22.12;100.00
17781;BME280;8498;52.516;13.790;2022-08-20T08:42:34;100841.66;;;22.14;100.00
17781;BME280;8498;52.516;13.790;2022-08-20T08:48:04;100841.88;;;22.35;100.00
17781;BME280;8498;52.516;13.790;2022-08-20T08:53:32;100850.38;;;22.32;100.00
17781;BME280;8498;52.516;13.790;2022-08-20T08:59:07;100850.00;;;22.35;100.00
17781;BME280;8498;52.516;13.790;2022-08-20T09:04:38;100866.41;;;22.42;100.00
17781;BME280;8498;52.516;13.790;2022-08-20T09:10:01;100860.28;;;22.48;100.00
17781;BME280;8498;52.516;13.790;2022-08-20T09:15:24;100864.13;;;22.53;100.00
17781;BME280;8498;52.516;13.790;2022-08-20T09:20:46;100872.06;;;22.55;100.00
17781;BME280;8498;52.516;13.790;2022-08-20T09:26:09;100870.03;;;22.57;100.00
17781;BME280;8498;52.516;13.790;2022-08-20T09:31:31;100870.31;;;22.70;100.00
17781;BME280;8498;52.516;13.790;2022-08-20T09:36:54;100858.53;;;22.86;100.00
17781;BME280;8498;52.516;13.790;2022-08-20T09:42:20;100865.88;;;22.77;100.00
17781;BME280;8498;52.516;13.790;2022-08-20T09:47:43;100874.03;;;22.69;100.00
17781;BME280;8498;52.516;13.790;2022-08-20T09:53:18;100868.13;;;22.65;100.00
17781;BME280;8498;52.516;13.790;2022-08-20T09:58:44;100864.88;;;22.78;100.00
17781;BME280;8498;52.516;13.790;2022-08-20T10:04:08;100861.69;;;22.97;100.00
17781;BME280;8498;52.516;13.790;2022-08-20T10:09:33;100861.94;;;23.11;100.00
17781;BME280;8498;52.516;13.790;2022-08-20T10:14:56;100870.84;;;24.24;100.00
17781;BME280;8498;52.516;13.790;2022-08-20T10:20:19;100860.69;;;23.59;98.40
17781;BME280;8498;52.516;13.790;2022-08-20T10:25:42;100863.97;;;23.09;100.00
17781;BME280;8498;52.516;13.790;2022-08-20T10:33:32;100859.81;;;22.98;100.00
17781;BME280;8498;52.516;13.790;2022-08-20T10:38:55;100854.94;;;23.16;100.00
17781;BME280;8498;52.516;13.790;2022-08-20T10:44:18;100862.94;;;23.10;100.00
17781;BME280;8498;52.516;13.790;2022-08-20T10:49:41;100855.19;;;23.06;100.00
17781;BME280;8498;52.516;13.790;2022-08-20T10:55:04;100868.63;;;23.23;100.00
17781;BME280;8498;52.516;13.790;2022-08-20T11:00:26;100871.94;;;23.10;100.00
17781;BME280;8498;52.516;13.790;2022-08-20T11:05:49;100874.31;;;23.05;99.73
17781;BME280;8498;52.516;13.790;2022-08-20T11:11:11;100880.22;;;22.86;99.14
17781;BME280;8498;52.516;13.790;2022-08-20T11:16:33;100877.34;;;23.10;96.84
17781;BME280;8498;52.516;13.790;2022-08-20T11:21:56;100875.91;;;22.99;97.84
17781;BME280;8498;52.516;13.790;2022-08-20T11:27:31;100879.03;;;23.34;96.43
17781;BME280;8498;52.516;13.790;2022-08-20T11:32:55;100877.69;;;23.30;93.21
17781;BME280;8498;52.516;13.790;2022-08-20T11:38:17;100878.63;;;23.22;94.08
17781;BME280;8498;52.516;13.790;2022-08-20T11:43:40;100877.16;;;23.12;93.73
17781;BME280;8498;52.516;13.790;2022-08-20T11:49:02;100886.38;;;23.25;92.13
17781;BME280;8498;52.516;13.790;2022-08-20T11:54:25;100884.31;;;23.27;93.02
17781;BME280;8498;52.516;13.790;2022-08-20T11:59:51;100892.63;;;23.26;91.90
17781;BME280;8498;52.516;13.790;2022-08-20T12:05:14;100890.13;;;23.24;92.27
17781;BME280;8498;52.516;13.790;2022-08-20T12:10:37;100890.81;;;23.41;91.94
17781;BME280;8498;52.516;13.790;2022-08-20T12:16:00;100901.00;;;23.62;90.29
17781;BME280;8498;52.516;13.790;2022-08-20T12:21:23;100896.00;;;23.51;89.38
17781;BME280;8498;52.516;13.790;2022-08-20T12:26:45;100892.00;;;23.38;87.56
17781;BME280;8498;52.516;13.790;2022-08-20T12:32:08;100887.88;;;23.28;88.04
17781;BME280;8498;52.516;13.790;2022-08-20T12:37:31;100900.91;;;23.47;87.80
17781;BME280;8498;52.516;13.790;2022-08-20T12:42:53;100899.28;;;23.23;82.08
17781;BME280;8498;52.516;13.790;2022-08-20T12:48:18;100896.13;;;23.12;83.01
17781;BME280;8498;52.516;13.790;2022-08-20T12:53:42;100900.34;;;22.91;83.70
17781;BME280;8498;52.516;13.790;2022-08-20T12:59:05;100881.56;;;23.13;83.88
17781;BME280;8498;52.516;13.790;2022-08-20T13:04:27;100892.16;;;23.22;84.49
17781;BME280;8498;52.516;13.790;2022-08-20T13:09:50;100895.59;;;23.16;84.86
17781;BME280;8498;52.516;13.790;2022-08-20T13:15:13;100898.25;;;23.01;84.04
17781;BME280;8498;52.516;13.790;2022-08-20T13:20:36;100897.44;;;23.16;83.71
17781;BME280;8498;52.516;13.790;2022-08-20T13:25:58;100907.69;;;23.28;83.64
17781;BME280;8498;52.516;13.790;2022-08-20T13:31:20;100906.38;;;23.24;83.52
17781;BME280;8498;52.516;13.790;2022-08-20T13:36:43;100906.38;;;23.24;81.46
17781;BME280;8498;52.516;13.790;2022-08-20T13:42:06;100908.88;;;23.26;81.69
17781;BME280;8498;52.516;13.790;2022-08-20T13:47:32;100913.59;;;23.09;81.38
17781;BME280;8498;52.516;13.790;2022-08-20T13:52:57;100904.09;;;23.13;81.58
17781;BME280;8498;52.516;13.790;2022-08-20T13:58:20;100911.25;;;23.06;81.79
17781;BME280;8498;52.516;13.790;2022-08-20T14:03:43;100906.91;;;23.20;81.87
17781;BME280;8498;52.516;13.790;2022-08-20T14:09:07;100907.03;;;23.26;81.39
17781;BME280;8498;52.516;13.790;2022-08-20T14:14:30;100898.72;;;23.05;83.44
17781;BME280;8498;52.516;13.790;2022-08-20T14:19:56;100913.59;;;23.09;84.13
17781;BME280;8498;52.516;13.790;2022-08-20T14:25:23;100925.56;;;22.92;84.46
17781;BME280;8498;52.516;13.790;2022-08-20T14:30:47;100912.91;;;23.15;85.83
17781;BME280;8498;52.516;13.790;2022-08-20T14:36:14;100903.91;;;23.15;86.37
17781;BME280;8498;52.516;13.790;2022-08-20T14:41:36;100918.16;;;23.09;87.34
17781;BME280;8498;52.516;13.790;2022-08-20T14:47:25;100915.69;;;22.99;88.42
17781;BME280;8498;52.516;13.790;2022-08-20T14:52:48;100921.69;;;22.86;89.04
17781;BME280;8498;52.516;13.790;2022-08-20T14:58:12;100923.72;;;22.45;91.75
17781;BME280;8498;52.516;13.790;2022-08-20T15:03:36;100921.03;;;22.45;92.96
17781;BME280;8498;52.516;13.790;2022-08-20T15:08:59;100914.25;;;22.49;94.07
17781;BME280;8498;52.516;13.790;2022-08-20T15:14:21;100920.50;;;22.50;94.83
17781;BME280;8498;52.516;13.790;2022-08-20T15:19:46;100908.13;;;22.55;95.92
17781;BME280;8498;52.516;13.790;2022-08-20T15:25:12;100917.63;;;22.51;96.92
17781;BME280;8498;52.516;13.790;2022-08-20T15:30:38;100915.63;;;22.45;98.07
17781;BME280;8498;52.516;13.790;2022-08-20T15:36:02;100926.44;;;22.45;98.42
17781;BME280;8498;52.516;13.790;2022-08-20T15:41:24;100928.84;;;22.40;98.87
17781;BME280;8498;52.516;13.790;2022-08-20T15:52:47;100937.00;;;22.32;100.00
17781;BME280;8498;52.516;13.790;2022-08-20T15:58:14;100933.44;;;22.31;100.00
17781;BME280;8498;52.516;13.790;2022-08-20T16:09:35;100942.44;;;22.16;100.00
17781;BME280;8498;52.516;13.790;2022-08-20T16:15:02;100944.84;;;22.11;100.00
17781;BME280;8498;52.516;13.790;2022-08-20T16:20:30;100936.53;;;22.12;100.00
17781;BME280;8498;52.516;13.790;2022-08-20T16:26:15;100945.00;;;22.01;100.00
17781;BME280;8498;52.516;13.790;2022-08-20T16:31:53;100945.19;;;22.00;100.00
17781;BME280;8498;52.516;13.790;2022-08-20T16:42:49;100952.94;;;22.03;100.00
17781;BME280;8498;52.516;13.790;2022-08-20T16:48:15;100964.78;;;21.93;100.00
17781;BME280;8498;52.516;13.790;2022-08-20T16:53:38;100964.78;;;22.02;100.00
17781;BME280;8498;52.516;13.790;2022-08-20T16:59:07;100963.09;;;22.09;100.00
17781;BME280;8498;52.516;13.790;2022-08-20T17:04:30;100957.88;;;21.99;100.00
17781;BME280;8498;52.516;13.790;2022-08-20T17:10:07;100951.94;;;21.95;100.00
17781;BME280;8498;52.516;13.790;2022-08-20T17:15:32;100956.31;;;21.96;100.00
17781;BME280;8498;52.516;13.790;2022-08-20T17:21:11;100958.38;;;21.86;100.00
17781;BME280;8498;52.516;13.790;2022-08-20T17:26:40;100958.03;;;21.89;100.00
17781;BME280;8498;52.516;13.790;2022-08-20T17:32:14;100958.72;;;22.00;100.00
17781;BME280;8498;52.516;13.790;2022-08-20T17:37:37;100968.16;;;21.95;100.00
17781;BME280;8498;52.516;13.790;2022-08-20T17:43:06;100968.53;;;22.01;100.00
17781;BME280;8498;52.516;13.790;2022-08-20T17:48:35;100972.56;;;21.88;100.00
17781;BME280;8498;52.516;13.790;2022-08-20T17:54:14;100978.81;;;21.97;100.00
17781;BME280;8498;52.516;13.790;2022-08-20T17:59:50;100982.69;;;21.94;100.00
17781;BME280;8498;52.516;13.790;2022-08-20T18:05:28;100978.81;;;21.89;100.00
17781;BME280;8498;52.516;13.790;2022-08-20T18:11:31;100986.78;;;21.99;100.00
17781;BME280;8498;52.516;13.790;2022-08-20T18:22:46;100996.06;;;21.96;100.00
17781;BME280;8498;52.516;13.790;2022-08-20T18:28:15;101011.63;;;21.86;100.00
17781;BME280;8498;52.516;13.790;2022-08-20T18:33:41;101006.03;;;21.87;100.00
17781;BME280;8498;52.516;13.790;2022-08-20T18:39:07;101006.53;;;21.83;100.00
17781;BME280;8498;52.516;13.790;2022-08-20T18:44:39;101014.66;;;21.83;100.00
17781;BME280;8498;52.516;13.790;2022-08-20T18:55:41;101018.38;;;21.82;100.00
17781;BME280;8498;52.516;13.790;2022-08-20T19:01:10;101009.75;;;21.78;100.00
17781;BME280;8498;52.516;13.790;2022-08-20T19:06:47;101019.22;;;21.74;100.00
17781;BME280;8498;52.516;13.790;2022-08-20T19:12:43;101012.63;;;21.77;100.00
17781;BME280;8498;52.516;13.790;2022-08-20T19:18:25;101027.69;;;21.79;100.00
17781;BME280;8498;52.516;13.790;2022-08-20T19:23:55;101023.28;;;21.78;100.00
17781;BME280;8498;52.516;13.790;2022-08-20T19:29:50;101030.03;;;21.82;100.00
17781;BME280;8498;52.516;13.790;2022-08-20T19:35:18;101035.81;;;21.79;100.00
17781;BME280;8498;52.516;13.790;2022-08-20T19:40:42;101027.50;;;21.81;100.00
17781;BME280;8498;52.516;13.790;2022-08-20T19:46:07;101020.91;;;21.83;100.00
17781;BME280;8498;52.516;13.790;2022-08-20T19:57:14;101029.19;;;21.74;100.00
17781;BME280;8498;52.516;13.790;2022-08-20T20:02:39;101023.25;;;21.70;100.00
17781;BME280;8498;52.516;13.790;2022-08-20T20:08:03;101037.47;;;21.72;100.00
17781;BME280;8498;52.516;13.790;2022-08-20T20:13:29;101033.06;;;21.71;100.00
17781;BME280;8498;52.516;13.790;2022-08-20T20:19:03;101027.34;;;21.66;100.00
17781;BME280;8498;52.516;13.790;2022-08-20T20:24:55;101024.78;;;21.56;100.00
17781;BME280;8498;52.516;13.790;2022-08-20T20:30:31;101020.91;;;21.59;100.00
17781;BME280;8498;52.516;13.790;2022-08-20T20:41:32;101027.34;;;21.66;100.00
17781;BME280;8498;52.516;13.790;2022-08-20T20:46:58;101022.25;;;21.63;100.00
17781;BME280;8498;52.516;13.790;2022-08-20T20:52:30;101026.81;;;21.63;100.00
17781;BME280;8498;52.516;13.790;2022-08-20T20:57:53;101028.34;;;21.65;100.00
17781;BME280;8498;52.516;13.790;2022-08-20T21:03:16;101025.97;;;21.62;100.00
17781;BME280;8498;52.516;13.790;2022-08-20T21:08:40;101016.84;;;21.63;100.00
17781;BME280;8498;52.516;13.790;2022-08-20T21:14:04;101017.16;;;21.60;100.00
17781;BME280;8498;52.516;13.790;2022-08-20T21:19:26;101007.41;;;21.59;100.00
17781;BME280;8498;52.516;13.790;2022-08-20T21:24:49;101005.72;;;21.58;100.00
17781;BME280;8498;52.516;13.790;2022-08-20T21:30:13;101007.72;;;21.56;100.00
17781;BME280;8498;52.516;13.790;2022-08-20T21:35:36;101000.94;;;21.60;100.00
17781;BME280;8498;52.516;13.790;2022-08-20T21:40:59;100999.09;;;21.60;100.00
17781;BME280;8498;52.516;13.790;2022-08-20T21:46:23;100990.50;;;21.57;100.00
17781;BME280;8498;52.516;13.790;2022-08-20T21:51:47;100989.13;;;21.53;100.00
17781;BME280;8498;52.516;13.790;2022-08-20T21:57:18;100987.09;;;21.55;100.00
17781;BME280;8498;52.516;13.790;2022-08-20T22:02:41;100982.72;;;21.46;100.00
17781;BME280;8498;52.516;13.790;2022-08-20T22:08:04;100977.31;;;21.46;100.00
17781;BME280;8498;52.516;13.790;2022-08-20T22:13:29;100978.47;;;21.35;100.00
17781;BME280;8498;52.516;13.790;2022-08-20T22:18:53;100979.31;;;21.28;100.00
17781;BME280;8498;52.516;13.790;2022-08-20T22:24:16;100983.72;;;21.37;100.00
17781;BME280;8498;52.516;13.790;2022-08-20T22:29:38;100975.78;;;21.35;100.00
17781;BME280;8498;52.516;13.790;2022-08-20T22:35:01;100983.72;;;21.37;100.00
17781;BME280;8498;52.516;13.790;2022-08-20T22:40:24;100977.47;;;21.36;100.00
17781;BME280;8498;52.516;13.790;2022-08-20T22:45:49;100997.88;;;21.31;100.00
17781;BME280;8498;52.516;13.790;2022-08-20T22:51:20;100991.47;;;21.32;100.00
17781;BME280;8498;52.516;13.790;2022-08-20T22:56:43;100994.84;;;21.26;100.00
17781;BME280;8498;52.516;13.790;2022-08-20T23:02:13;100996.19;;;21.21;100.00
17781;BME280;8498;52.516;13.790;2022-08-20T23:07:37;101002.44;;;21.22;100.00
17781;BME280;8498;52.516;13.790;2022-08-20T23:12:59;101003.28;;;21.22;100.00
17781;BME280;8498;52.516;13.790;2022-08-20T23:18:22;101004.66;;;21.27;100.00
17781;BME280;8498;52.516;13.790;2022-08-20T23:23:44;101004.97;;;21.23;100.00
17781;BME280;8498;52.516;13.790;2022-08-20T23:29:07;101003.81;;;21.26;100.00
17781;BME280;8498;52.516;13.790;2022-08-20T23:34:30;101003.28;;;21.22;100.00
17781;BME280;8498;52.516;13.790;2022-08-20T23:39:52;101000.72;;;21.21;100.00
17781;BME280;8498;52.516;13.790;2022-08-20T23:45:15;101001.91;;;21.18;100.00
17781;BME280;8498;52.516;13.790;2022-08-20T23:50:37;100999.88;;;21.20;100.00
17781;BME280;8498;52.516;13.790;2022-08-20T23:56:00;100990.41;;;21.16;100.00
